To NAV CANADA Home Page Login to a new session Search on AWWS site Feedback and Comments Disclaimer Vers la page française équivalente Tips FAQ What's new on the site To the Forecasts and Observations / NOTAM section To "File a Flight Plan" website Publications and other links Update of the User's profile FIC Telephone Numbers My Weather Data Folder Route Weather Data Regional Weather Data Local Weather Data To the Forecasts and Observations / NOTAM section
Request Generated 03/28/2017 at 02:21:18 UTC . Weather information available at that time is displayed.

METAR/TAF

ST. ANTHONY/NL    (show WxCam)

METAR CYAY 280200Z AUTO 30013G20KT 9SM CLR M06/M13 A3016 RMK SLP216=
METAR CYAY 280100Z AUTO 31015KT 9SM CLR M05/M11 A3016 RMK SLP216=
METAR CYAY 280000Z AUTO 27008KT 9SM CLR M08/M11 A3016 RMK SLP218=

TAF CYAY 280138Z 2802/2814 27008KT P6SM SKC
BECMG 2804/2806 30015G25KT
FM280600 30015G25KT P6SM SCT020 TEMPO 2806/2814 5SM -SHSN BKN020
RMK FCST BASED ON AUTO OBS. NXT FCST BY 280800Z=
Your time UTC time
Weather data provided by Environment Canada and NAV CANADA